createdAt,value
2019-03-15T00:01:13.334Z,33.90
2019-03-15T00:03:42.284Z,37.35
2019-03-15T00:06:10.764Z,38.78
2019-03-15T00:08:39.440Z,40.52
2019-03-15T00:11:07.478Z,38.00
2019-03-15T00:13:35.657Z,34.05
2019-03-15T00:16:04.337Z,43.70
2019-03-15T00:18:32.446Z,38.28
2019-03-15T00:21:00.710Z,36.38
2019-03-15T00:23:30.037Z,36.08
2019-03-15T00:25:58.110Z,40.30
2019-03-15T00:28:26.352Z,36.30
2019-03-15T00:30:54.413Z,40.83
2019-03-15T00:33:22.392Z,40.03
2019-03-15T00:35:50.715Z,37.35
2019-03-15T00:38:18.753Z,38.65
2019-03-15T00:40:47.846Z,35.20
2019-03-15T00:43:16.002Z,46.70
2019-03-15T00:45:44.318Z,34.33
2019-03-15T00:48:12.344Z,35.73
2019-03-15T00:50:40.453Z,45.23
2019-03-15T00:53:08.648Z,42.58
2019-03-15T00:55:36.737Z,41.10
2019-03-15T00:58:07.890Z,42.38
2019-03-15T01:00:35.975Z,43.10
2019-03-15T01:03:04.169Z,44.98
2019-03-15T01:05:33.624Z,39.63
2019-03-15T01:08:01.661Z,37.15
2019-03-15T01:10:30.271Z,40.52
2019-03-15T01:12:58.639Z,42.20
2019-03-15T01:15:26.847Z,38.75
2019-03-15T01:17:55.055Z,41.33
2019-03-15T01:20:23.364Z,36.85
2019-03-15T01:22:51.537Z,47.48
2019-03-15T01:25:19.712Z,40.28
2019-03-15T01:27:47.860Z,47.33
2019-03-15T01:30:15.870Z,48.25
2019-03-15T01:32:43.941Z,44.48
2019-03-15T01:35:12.080Z,42.15
2019-03-15T01:37:40.132Z,42.43
2019-03-15T01:40:08.126Z,37.80
2019-03-15T01:42:36.204Z,43.40
2019-03-15T01:45:04.415Z,45.58
2019-03-15T01:47:32.638Z,44.20
2019-03-15T01:50:00.599Z,36.48
2019-03-15T01:52:28.668Z,43.80
2019-03-15T01:54:56.871Z,44.33
2019-03-15T01:57:24.849Z,54.48
2019-03-15T01:59:52.946Z,47.78
2019-03-15T02:02:21.158Z,49.63
2019-03-15T02:04:49.114Z,44.53
2019-03-15T02:07:17.298Z,57.05
2019-03-15T02:09:45.319Z,51.05
2019-03-15T02:12:13.620Z,45.28
2019-03-15T02:14:42.127Z,56.85
2019-03-15T02:17:10.363Z,61.23
2019-03-15T02:19:38.404Z,49.13
2019-03-15T02:22:06.510Z,50.30
2019-03-15T02:24:36.486Z,60.28
2019-03-15T02:27:04.201Z,60.83
2019-03-15T02:29:32.437Z,48.33
2019-03-15T02:32:00.633Z,50.58
2019-03-15T02:34:28.751Z,58.45
2019-03-15T02:36:56.875Z,55.90
2019-03-15T02:39:25.206Z,58.55
2019-03-15T02:41:53.306Z,57.78
2019-03-15T02:44:21.432Z,60.17
2019-03-15T02:46:49.595Z,63.75
2019-03-15T02:49:18.009Z,67.67
2019-03-15T02:51:46.413Z,65.15
2019-03-15T02:54:17.329Z,60.10
2019-03-15T02:56:45.313Z,53.98
2019-03-15T02:59:13.609Z,57.53
2019-03-15T03:01:41.832Z,60.83
2019-03-15T03:04:09.890Z,70.00
2019-03-15T03:06:38.041Z,65.12
2019-03-15T03:09:08.115Z,74.37
2019-03-15T03:11:36.265Z,62.73
2019-03-15T03:14:04.578Z,70.28
2019-03-15T03:16:33.676Z,60.50
2019-03-15T03:19:02.065Z,64.95
2019-03-15T03:21:30.346Z,72.78
2019-03-15T03:23:58.426Z,71.80
2019-03-15T03:26:26.573Z,62.73
2019-03-15T03:28:55.897Z,76.57
2019-03-15T03:31:24.481Z,67.15
2019-03-15T03:33:52.755Z,66.07
2019-03-15T03:36:20.695Z,63.08
2019-03-15T03:38:48.953Z,58.50
2019-03-15T03:41:17.155Z,61.83
2019-03-15T03:43:45.391Z,64.25
2019-03-15T03:46:13.329Z,59.33
2019-03-15T03:48:41.959Z,69.05
2019-03-15T03:51:11.345Z,59.88
2019-03-15T03:53:39.356Z,66.97
2019-03-15T03:56:12.391Z,58.75
2019-03-15T03:58:40.478Z,62.13
2019-03-15T04:01:08.407Z,58.98
2019-03-15T04:03:36.888Z,66.67
2019-03-15T04:06:05.146Z,66.42
2019-03-15T04:08:33.403Z,71.30
2019-03-15T04:11:01.680Z,65.08
2019-03-15T04:13:29.712Z,69.45
2019-03-15T04:15:57.790Z,70.42
2019-03-15T04:18:26.034Z,76.95
2019-03-15T04:20:54.387Z,67.80
2019-03-15T04:23:22.592Z,68.02
2019-03-15T04:25:50.867Z,61.92
2019-03-15T04:28:19.916Z,72.17
2019-03-15T04:30:48.061Z,64.15
2019-03-15T04:33:16.499Z,66.40
2019-03-15T04:35:44.829Z,70.92
2019-03-15T04:38:12.803Z,84.50
2019-03-15T04:40:41.109Z,68.67
2019-03-15T04:43:09.425Z,69.10
2019-03-15T04:45:37.406Z,64.82
2019-03-15T04:48:05.633Z,70.65
2019-03-15T04:50:34.734Z,73.85
2019-03-15T04:53:03.505Z,68.87
2019-03-15T04:55:31.890Z,67.65
2019-03-15T04:58:01.111Z,67.10
2019-03-15T05:00:29.615Z,72.45
2019-03-15T05:02:57.850Z,74.47
2019-03-15T05:05:26.480Z,68.40
2019-03-15T05:07:54.605Z,65.45
2019-03-15T05:10:22.718Z,66.72
2019-03-15T05:12:50.785Z,70.32
2019-03-15T05:15:19.406Z,62.45
2019-03-15T05:17:47.470Z,65.40
2019-03-15T05:20:21.037Z,71.12
2019-03-15T05:22:47.974Z,63.05
2019-03-15T05:25:15.993Z,61.25
2019-03-15T05:27:43.957Z,61.58
2019-03-15T05:30:14.954Z,61.70
2019-03-15T05:32:42.972Z,74.60
2019-03-15T05:35:10.945Z,69.77
2019-03-15T05:37:40.332Z,61.23
2019-03-15T05:40:09.285Z,68.70
2019-03-15T05:42:37.336Z,57.05
2019-03-15T05:45:05.919Z,65.45
2019-03-15T05:47:33.905Z,65.57
2019-03-15T05:50:02.393Z,60.30
2019-03-15T05:52:30.562Z,63.10
2019-03-15T05:54:58.677Z,59.08
2019-03-15T05:57:26.760Z,61.20
2019-03-15T05:59:55.093Z,61.92
2019-03-15T06:02:23.158Z,63.50
2019-03-15T06:04:51.099Z,60.80
2019-03-15T06:07:19.514Z,59.42
2019-03-15T06:09:47.574Z,62.38
2019-03-15T06:12:17.232Z,56.33
2019-03-15T06:14:46.865Z,56.13
2019-03-15T06:17:14.862Z,55.67
2019-03-15T06:19:42.902Z,62.90
2019-03-15T06:22:11.830Z,57.58
2019-03-15T06:24:40.009Z,62.25
2019-03-15T06:27:07.944Z,56.65
2019-03-15T06:29:36.055Z,54.40
2019-03-15T06:32:04.415Z,52.93
2019-03-15T06:34:32.640Z,53.02
2019-03-15T06:37:00.724Z,56.58
2019-03-15T06:39:29.911Z,54.65
2019-03-15T06:41:57.958Z,59.85
2019-03-15T06:44:27.189Z,59.95
2019-03-15T06:46:55.190Z,56.33
2019-03-15T06:49:23.499Z,56.58
2019-03-15T06:51:51.538Z,55.92
2019-03-15T06:54:19.823Z,54.85
2019-03-15T06:56:48.016Z,58.33
2019-03-15T06:59:16.179Z,60.75
2019-03-15T07:01:44.283Z,55.73
2019-03-15T07:04:12.882Z,55.35
2019-03-15T07:06:40.869Z,57.73
2019-03-15T07:09:11.691Z,54.13
2019-03-15T07:11:39.736Z,51.80
2019-03-15T07:14:07.758Z,53.25
2019-03-15T07:16:38.173Z,54.23
2019-03-15T07:19:06.514Z,52.95
2019-03-15T07:21:36.767Z,53.92
2019-03-15T07:24:06.831Z,53.17
2019-03-15T07:26:34.983Z,52.95
2019-03-15T07:29:03.154Z,56.88
2019-03-15T07:31:31.706Z,62.90
2019-03-15T07:34:03.183Z,57.95
2019-03-15T07:36:31.595Z,53.70
2019-03-15T07:38:59.649Z,53.73
2019-03-15T07:41:27.656Z,53.17
2019-03-15T07:43:56.552Z,52.10
2019-03-15T07:46:25.926Z,50.40
2019-03-15T07:48:53.869Z,55.38
2019-03-15T07:51:23.041Z,57.27
2019-03-15T07:53:52.484Z,57.43
2019-03-15T07:56:20.595Z,49.58
2019-03-15T07:58:48.897Z,54.27
2019-03-15T08:01:17.394Z,52.93
2019-03-15T08:03:45.379Z,52.85
2019-03-15T08:06:13.706Z,55.83
2019-03-15T08:08:42.344Z,58.68
2019-03-15T08:11:10.528Z,58.58
2019-03-15T08:13:38.949Z,50.73
2019-03-15T08:16:07.229Z,51.08
2019-03-15T08:18:35.462Z,52.17
2019-03-15T08:21:04.379Z,65.92
2019-03-15T08:23:35.636Z,61.90
2019-03-15T08:26:03.993Z,54.50
2019-03-15T08:28:31.951Z,49.18
2019-03-15T08:31:00.073Z,54.53
2019-03-15T08:33:28.159Z,55.08
2019-03-15T08:35:56.430Z,57.58
2019-03-15T08:38:24.452Z,56.13
2019-03-15T08:40:52.606Z,56.85
2019-03-15T08:43:20.875Z,55.30
2019-03-15T08:45:49.148Z,57.58
2019-03-15T08:48:18.192Z,58.23
2019-03-15T08:50:46.975Z,54.93
2019-03-15T08:53:22.428Z,50.17
2019-03-15T08:55:50.571Z,52.13
2019-03-15T08:58:21.916Z,59.83
2019-03-15T09:00:48.176Z,58.92
2019-03-15T09:03:27.313Z,53.98
2019-03-15T09:05:47.124Z,48.95
2019-03-15T09:08:15.959Z,54.40
2019-03-15T09:10:44.368Z,54.53
2019-03-15T09:13:12.442Z,54.35
2019-03-15T09:15:40.777Z,56.28
2019-03-15T09:18:08.855Z,54.13
2019-03-15T09:20:37.236Z,51.55
2019-03-15T09:23:05.379Z,53.10
2019-03-15T09:25:33.597Z,54.60
2019-03-15T09:28:01.810Z,50.60
2019-03-15T09:30:30.595Z,50.03
2019-03-15T09:32:58.804Z,50.15
2019-03-15T09:35:26.904Z,49.83
2019-03-15T09:37:56.472Z,45.58
2019-03-15T09:40:25.850Z,53.17
2019-03-15T09:42:54.047Z,50.73
2019-03-15T09:45:22.207Z,59.00
2019-03-15T09:47:50.757Z,49.40
2019-03-15T09:50:33.825Z,46.95
2019-03-15T09:52:48.598Z,53.02
2019-03-15T09:55:17.195Z,53.13
2019-03-15T09:57:45.192Z,55.67
2019-03-15T10:00:13.240Z,58.95
2019-03-15T10:02:41.437Z,57.40
2019-03-15T10:05:11.412Z,59.67
2019-03-15T10:07:39.135Z,61.90
2019-03-15T10:10:13.350Z,63.45
2019-03-15T10:12:38.297Z,53.20
2019-03-15T10:15:07.969Z,60.55
2019-03-15T10:17:36.177Z,54.10
2019-03-15T10:20:04.510Z,51.25
2019-03-15T10:22:32.562Z,53.23
2019-03-15T10:25:00.727Z,53.73
2019-03-15T10:27:28.981Z,58.02
2019-03-15T10:29:57.341Z,52.85
2019-03-15T10:32:25.954Z,56.63
2019-03-15T10:34:53.919Z,52.93
2019-03-15T10:37:22.152Z,56.58
2019-03-15T10:39:50.243Z,47.50
2019-03-15T10:42:18.659Z,57.43
2019-03-15T10:44:46.790Z,55.00
2019-03-15T10:47:15.164Z,51.75
2019-03-15T10:49:43.426Z,64.37
2019-03-15T10:52:12.123Z,63.05
2019-03-15T10:54:40.249Z,59.73
2019-03-15T10:57:08.407Z,63.52
2019-03-15T10:59:36.727Z,59.25
2019-03-15T11:02:05.537Z,51.00
2019-03-15T11:04:33.857Z,55.12
2019-03-15T11:07:02.556Z,66.70
2019-03-15T11:09:31.515Z,57.58
2019-03-15T11:11:59.791Z,48.60
2019-03-15T11:14:28.135Z,47.75
2019-03-15T11:16:56.361Z,64.62
2019-03-15T11:19:24.442Z,52.15
2019-03-15T11:21:52.450Z,50.48
2019-03-15T11:24:20.763Z,49.42
2019-03-15T11:26:49.091Z,46.45
2019-03-15T11:29:17.236Z,45.78
2019-03-15T11:31:45.565Z,50.38
2019-03-15T11:34:13.746Z,48.63
2019-03-15T11:36:43.169Z,58.52
2019-03-15T11:39:12.740Z,47.98
2019-03-15T11:41:40.871Z,56.23
2019-03-15T11:44:09.699Z,55.85
2019-03-15T11:46:38.217Z,48.23
2019-03-15T11:49:06.379Z,47.93
2019-03-15T11:51:34.434Z,57.65
2019-03-15T11:54:02.620Z,48.75
2019-03-15T11:56:31.231Z,49.80
2019-03-15T11:58:59.465Z,56.85
2019-03-15T12:01:27.780Z,54.03
2019-03-15T12:03:55.928Z,47.13
2019-03-15T12:06:23.892Z,50.05
2019-03-15T12:08:52.063Z,49.27
2019-03-15T12:11:20.354Z,51.65
2019-03-15T12:13:48.486Z,52.40
2019-03-15T12:16:16.563Z,49.03
2019-03-15T12:18:44.612Z,46.58
2019-03-15T12:21:12.638Z,44.60
2019-03-15T12:23:40.734Z,41.60
2019-03-15T12:26:10.032Z,41.75
2019-03-15T12:28:38.226Z,51.35
2019-03-15T12:31:06.268Z,43.85
2019-03-15T12:33:34.309Z,50.63
2019-03-15T12:36:03.391Z,48.63
2019-03-15T12:38:31.741Z,48.60
2019-03-15T12:40:59.821Z,50.17
2019-03-15T12:43:28.105Z,48.73
2019-03-15T12:45:56.226Z,42.38
2019-03-15T12:48:24.351Z,50.45
2019-03-15T12:50:52.388Z,51.73
2019-03-15T12:53:20.566Z,51.02
2019-03-15T12:55:48.670Z,53.70
2019-03-15T12:58:16.681Z,52.75
2019-03-15T13:00:45.080Z,51.60
2019-03-15T13:03:13.216Z,52.20
2019-03-15T13:05:41.300Z,50.48
2019-03-15T13:08:10.058Z,52.10
2019-03-15T13:10:38.043Z,47.33
2019-03-15T13:13:06.185Z,52.62
2019-03-15T13:15:34.532Z,49.35
2019-03-15T13:18:02.643Z,56.42
2019-03-15T13:20:30.688Z,45.12
2019-03-15T13:22:58.951Z,47.53
2019-03-15T13:25:26.981Z,46.53
2019-03-15T13:27:55.593Z,45.08
2019-03-15T13:30:23.659Z,45.67
2019-03-15T13:32:52.510Z,54.15
2019-03-15T13:35:20.626Z,54.30
2019-03-15T13:37:48.764Z,51.70
2019-03-15T13:40:16.728Z,44.73
2019-03-15T13:42:45.048Z,51.10
2019-03-15T13:45:13.220Z,56.55
2019-03-15T13:47:41.301Z,53.45
2019-03-15T13:50:09.529Z,57.35
2019-03-15T13:52:37.911Z,61.83
2019-03-15T13:55:11.071Z,47.55
2019-03-15T13:57:39.373Z,52.83
2019-03-15T14:00:07.459Z,47.78
2019-03-15T14:02:35.743Z,47.88
2019-03-15T14:05:03.959Z,46.95
2019-03-15T14:07:33.103Z,53.45
2019-03-15T14:10:03.932Z,55.45
2019-03-15T14:12:30.879Z,57.15
2019-03-15T14:14:59.143Z,64.53
2019-03-15T14:17:28.574Z,54.58
2019-03-15T14:19:57.283Z,55.80
2019-03-15T14:22:25.362Z,56.23
2019-03-15T14:24:53.658Z,62.40
2019-03-15T14:27:32.533Z,53.38
2019-03-15T14:29:51.548Z,53.90
2019-03-15T14:32:19.701Z,61.63
2019-03-15T14:34:47.725Z,49.35
2019-03-15T14:37:18.643Z,60.75
2019-03-15T14:39:46.889Z,59.42
2019-03-15T14:42:15.461Z,57.13
2019-03-15T14:44:43.652Z,53.95
2019-03-15T14:47:11.800Z,61.08
2019-03-15T14:49:43.173Z,57.17
2019-03-15T14:52:14.267Z,59.83
2019-03-15T14:54:42.574Z,53.68
2019-03-15T14:57:12.610Z,62.13
2019-03-15T14:59:43.496Z,59.67
2019-03-15T15:02:12.047Z,57.88
2019-03-15T15:04:40.044Z,50.55
2019-03-15T15:07:08.025Z,52.85
2019-03-15T15:09:36.204Z,48.78
2019-03-15T15:12:04.350Z,51.60
2019-03-15T15:14:32.310Z,60.28
2019-03-15T15:17:00.629Z,51.35
2019-03-15T15:19:28.930Z,58.23
2019-03-15T15:21:57.034Z,61.58
2019-03-15T15:24:25.366Z,58.98
2019-03-15T15:26:53.613Z,52.05
2019-03-15T15:29:22.203Z,56.05
2019-03-15T15:31:50.831Z,58.20
2019-03-15T15:34:21.545Z,58.38
2019-03-15T15:36:48.431Z,72.27
2019-03-15T15:39:16.842Z,67.95
2019-03-15T15:41:45.099Z,72.05
2019-03-15T15:44:13.256Z,63.70
2019-03-15T15:46:44.064Z,68.47
2019-03-15T15:49:12.142Z,53.48
2019-03-15T15:51:40.179Z,63.48
2019-03-15T15:54:08.538Z,69.35
2019-03-15T15:56:36.610Z,63.98
2019-03-15T15:59:06.843Z,63.45
2019-03-15T16:01:36.036Z,53.80
2019-03-15T16:04:04.459Z,59.90
2019-03-15T16:09:16.662Z,67.08
2019-03-15T16:11:47.285Z,69.77
2019-03-15T16:14:15.417Z,67.32
2019-03-15T16:16:43.692Z,70.60
2019-03-15T16:19:12.109Z,74.55
2019-03-15T16:21:40.349Z,78.33
2019-03-15T16:24:08.569Z,77.65
2019-03-15T16:26:36.515Z,71.72
2019-03-15T16:29:04.696Z,69.87
2019-03-15T16:31:33.422Z,72.05
2019-03-15T16:34:01.542Z,73.28
2019-03-15T16:36:29.856Z,73.50
2019-03-15T16:38:57.932Z,77.85
2019-03-15T16:41:26.392Z,79.55
2019-03-15T16:43:54.699Z,83.75
2019-03-15T16:46:22.820Z,69.70
2019-03-15T16:48:50.930Z,83.17
2019-03-15T16:51:19.968Z,74.92
2019-03-15T16:53:48.046Z,80.75
2019-03-15T16:56:16.034Z,79.47
2019-03-15T16:58:45.743Z,76.50
2019-03-15T17:01:13.613Z,76.95
2019-03-15T17:03:41.694Z,75.70
2019-03-15T17:06:09.819Z,79.22
2019-03-15T17:08:37.953Z,83.55
2019-03-15T17:11:05.910Z,83.97
2019-03-15T17:13:34.285Z,83.62
2019-03-15T17:16:02.325Z,93.25
2019-03-15T17:18:30.398Z,83.33
2019-03-15T17:20:58.575Z,86.78
2019-03-15T17:23:26.565Z,93.78
2019-03-15T17:28:30.533Z,95.45
2019-03-15T17:31:09.151Z,85.32
2019-03-15T17:33:28.429Z,92.70
2019-03-15T17:35:57.314Z,96.00
2019-03-15T17:38:25.405Z,87.85
2019-03-15T17:40:53.632Z,91.75
2019-03-15T17:43:22.294Z,96.00
2019-03-15T17:45:50.313Z,97.70
2019-03-15T17:48:18.456Z,102.87
2019-03-15T17:50:49.270Z,110.63
2019-03-15T17:53:17.467Z,116.70
2019-03-15T17:55:45.708Z,115.30
2019-03-15T17:58:13.685Z,117.65
2019-03-15T18:00:41.999Z,87.35
2019-03-15T18:03:20.557Z,105.52
2019-03-15T18:05:39.741Z,113.22
2019-03-15T18:08:07.748Z,105.50
2019-03-15T18:10:36.028Z,112.65
2019-03-15T18:13:04.212Z,95.10
2019-03-15T18:15:32.470Z,106.97
2019-03-15T18:18:00.857Z,111.65
2019-03-15T18:20:28.862Z,102.27
2019-03-15T18:22:57.560Z,114.08
2019-03-15T18:25:25.941Z,116.33
2019-03-15T18:27:55.101Z,118.33
2019-03-15T18:30:23.250Z,118.93
2019-03-15T18:32:51.525Z,119.95
2019-03-15T18:35:32.662Z,95.45
2019-03-15T18:37:49.396Z,109.48
2019-03-15T18:40:17.900Z,117.30
2019-03-15T18:42:46.264Z,102.72
2019-03-15T18:45:17.315Z,96.87
2019-03-15T18:47:46.323Z,97.45
2019-03-15T18:50:14.871Z,97.27
2019-03-15T18:52:43.568Z,89.05
2019-03-15T18:55:11.990Z,86.05
2019-03-15T18:57:39.948Z,88.20
2019-03-15T19:00:10.941Z,90.92
2019-03-15T19:02:39.318Z,89.67
2019-03-15T19:05:07.447Z,82.12
2019-03-15T19:07:35.383Z,76.05
2019-03-15T19:10:04.303Z,82.97
2019-03-15T19:12:33.501Z,91.50
2019-03-15T19:15:01.570Z,82.45
2019-03-15T19:17:31.036Z,100.92
2019-03-15T19:19:58.949Z,83.47
2019-03-15T19:22:28.220Z,78.07
2019-03-15T19:24:56.387Z,84.80
2019-03-15T19:27:24.933Z,81.50
2019-03-15T19:29:54.079Z,87.80
2019-03-15T19:32:22.674Z,85.75
2019-03-15T19:34:50.684Z,88.37
2019-03-15T19:37:19.239Z,88.25
2019-03-15T19:39:48.904Z,96.15
2019-03-15T19:42:16.846Z,92.82
2019-03-15T19:44:45.517Z,85.30
2019-03-15T19:47:14.233Z,87.62
2019-03-15T19:49:43.031Z,87.20
2019-03-15T19:52:11.219Z,87.10
2019-03-15T19:54:40.713Z,79.22
2019-03-15T19:57:09.446Z,72.37
2019-03-15T19:59:37.394Z,76.42
2019-03-15T20:02:05.588Z,72.35
2019-03-15T20:04:33.799Z,72.40
2019-03-15T20:07:02.647Z,65.60
2019-03-15T20:09:30.762Z,72.03
2019-03-15T20:11:58.784Z,66.02
2019-03-15T20:14:26.890Z,63.80
2019-03-15T20:16:55.369Z,65.65
2019-03-15T20:19:23.850Z,61.88
2019-03-15T20:21:52.142Z,73.97
2019-03-15T20:24:20.494Z,66.33
2019-03-15T20:26:48.623Z,64.82
2019-03-15T20:29:19.037Z,75.37
2019-03-15T20:31:47.161Z,81.17
2019-03-15T20:34:15.244Z,77.32
2019-03-15T20:36:43.519Z,77.32
2019-03-15T20:39:12.493Z,91.60
2019-03-15T20:41:41.304Z,90.90
2019-03-15T20:44:12.474Z,95.05
2019-03-15T20:46:40.504Z,90.38
2019-03-15T20:49:09.498Z,92.08
2019-03-15T20:51:37.586Z,94.60
2019-03-15T20:54:07.227Z,89.00
2019-03-15T20:56:35.753Z,91.57
2019-03-15T20:59:04.534Z,82.05
2019-03-15T21:01:32.473Z,78.83
2019-03-15T21:04:01.677Z,73.52
2019-03-15T21:06:30.498Z,73.78
2019-03-15T21:08:58.468Z,71.22
2019-03-15T21:11:26.515Z,70.15
2019-03-15T21:13:54.972Z,67.27
2019-03-15T21:16:23.341Z,66.72
2019-03-15T21:18:51.474Z,66.50
2019-03-15T21:21:19.611Z,68.85
2019-03-15T21:23:47.600Z,69.70
2019-03-15T21:26:15.933Z,63.00
2019-03-15T21:31:28.304Z,69.17
2019-03-15T21:33:56.476Z,66.42
2019-03-15T21:36:24.518Z,62.03
2019-03-15T21:38:53.002Z,69.95
2019-03-15T21:41:21.110Z,63.75
2019-03-15T21:43:49.213Z,68.87
2019-03-15T21:46:17.357Z,68.45
2019-03-15T21:48:45.943Z,65.25
2019-03-15T21:51:14.267Z,59.40
2019-03-15T21:53:42.249Z,69.45
2019-03-15T21:56:10.513Z,73.67
2019-03-15T21:58:38.480Z,68.67
2019-03-15T22:01:06.704Z,72.20
2019-03-15T22:03:35.144Z,68.12
2019-03-15T22:06:03.300Z,71.30
2019-03-15T22:08:31.321Z,69.32
2019-03-15T22:10:59.773Z,71.33
2019-03-15T22:13:29.989Z,73.35
2019-03-15T22:15:59.752Z,82.78
2019-03-15T22:18:27.784Z,74.70
2019-03-15T22:20:55.708Z,78.52
2019-03-15T22:23:24.078Z,84.77
2019-03-15T22:25:52.599Z,89.00
2019-03-15T22:28:21.321Z,84.83
2019-03-15T22:30:49.895Z,84.47
2019-03-15T22:33:20.978Z,86.12
2019-03-15T22:35:49.035Z,84.58
2019-03-15T22:38:26.173Z,69.58
